Weather at London Gatwick Airport

Public forecast

Using degrees Celsius for public forecast. Weather courtesy of forecast.io.

Current aviation weather report (METAR) for London Gatwick Airport

2022/12/06 06:50 (retrieved 36 minutes ago)

EGKK 060650Z 01006KT 9999 FEW039 03/02 Q1023

Aviation forecast (TAF) for London Gatwick Airport

2022/12/06 06:00 (retrieved 1 hour ago)

TAF EGKK 060457Z 0606/0712 36005KT 9999 SCT045 TEMPO 0616/0712 BKN012 PROB30 TEMPO 0620/0712 BKN007